Taiyoung Star — DSON6 — position and weather

sailwx.info

Track history (hours):
 
Tides and Currents Weather Stations Pressure Air Temp Water Temp Dewpoint Dewpoint Depression Visibility Wind Speed Wind Dir Waves Ship Positions

Taiyoung Star

Last reported at 2017-Sep-18 11:06 UTC. Time now 2017-Sep-22 09:50 UTC.
Position N 34°07' E 135°00'.

Length 79 m; draft 4.9 m.

Type: Cargo ship. MMSI: 440970000.

Date/timePositionNaut miles runAvg speedWind from/ knotsBaromVisibWave heightAir tempDewpointWater temp
2017-Sep-18 11:06N 34°07' E 135°00'1 8.6
2017-Sep-18 10:57N 34°08' E 135°00'4 8.5
2017-Sep-18 10:29N 34°12' E 134°60'12 3.7
2017-Sep-18 07:23N 34°22' E 135°06'2 2.5
2017-Sep-18 06:45N 34°22' E 135°07'0 0.0
2017-Sep-17 22:49N 34°22' E 135°08'0 0.0
2017-Sep-17 22:19N 34°22' E 135°08'0 0.0
2017-Sep-17 21:55N 34°22' E 135°08'0 0.0
2017-Sep-17 21:25N 34°22' E 135°08'0 0.0
2017-Sep-16 22:43N 34°22' E 135°07'0 0.1
2017-Sep-16 22:19N 34°22' E 135°07'0 0.0
2017-Sep-16 20:43N 34°22' E 135°07'0 0.0
2017-Sep-16 20:19N 34°22' E 135°07'0 0.0
2017-Sep-16 19:54N 34°22' E 135°07'0 0.0
2017-Sep-16 17:07N 34°22' E 135°07'0 0.0
2017-Sep-16 15:31N 34°22' E 135°07'0 0.0
2017-Sep-16 15:01N 34°22' E 135°07'0 0.0
2017-Sep-16 14:55N 34°22' E 135°07'0 0.0
2017-Sep-16 14:19N 34°22' E 135°07'0 0.0
2017-Sep-16 13:43N 34°22' E 135°07'0 0.0
2017-Sep-16 05:54N 34°22' E 135°07'2 0.2
2017-Sep-15 16:54N 34°23' E 135°05'2 3.6
2017-Sep-15 16:21N 34°25' E 135°06'4 9.4
2017-Sep-15 15:58N 34°29' E 135°05'4 9.5
2017-Sep-15 15:30N 34°33' E 135°05'610.7
2017-Sep-15 14:59N 34°37' E 135°00'  
2017-Sep-09 06:49N 34°37' E 135°01'2 5.0
2017-Sep-09 06:30N 34°36' E 135°03'3 5.8
2017-Sep-09 06:00N 34°35' E 135°05'5 9.5
2017-Sep-09 05:31N 34°30' E 135°04'5 9.4
2017-Sep-09 04:56N 34°25' E 135°02'4 9.2
2017-Sep-09 04:31N 34°21' E 135°01'6 9.0
2017-Sep-09 03:47N 34°15' E 134°60'3 9.6
2017-Sep-09 03:30N 34°12' E 134°60'6 9.9
2017-Sep-09 02:53N 34°06' E 135°01'  
Track history (hours):
 
Tides and Currents Weather Stations Pressure Air Temp Water Temp Dewpoint Dewpoint Depression Visibility Wind Speed Wind Dir Waves Ship Positions

Taiyoung Star

Last reported at 2017-Sep-18 11:06 UTC. Time now 2017-Sep-22 09:50 UTC.
Position N 34°07' E 135°00'.

Length 79 m; draft 4.9 m.

Type: Cargo ship. MMSI: 440970000.

Date/timePositionNaut miles runAvg speedWind from/ knotsBaromVisibWave heightAir tempDewpointWater temp
2017-Sep-18 11:06N 34°07' E 135°00'1 8.6
2017-Sep-18 10:57N 34°08' E 135°00'4 8.5
2017-Sep-18 10:29N 34°12' E 134°60'12 3.7
2017-Sep-18 07:23N 34°22' E 135°06'2 2.5
2017-Sep-18 06:45N 34°22' E 135°07'0 0.0
2017-Sep-17 22:49N 34°22' E 135°08'0 0.0
2017-Sep-17 22:19N 34°22' E 135°08'0 0.0
2017-Sep-17 21:55N 34°22' E 135°08'0 0.0
2017-Sep-17 21:25N 34°22' E 135°08'0 0.0
2017-Sep-16 22:43N 34°22' E 135°07'0 0.1
2017-Sep-16 22:19N 34°22' E 135°07'0 0.0
2017-Sep-16 20:43N 34°22' E 135°07'0 0.0
2017-Sep-16 20:19N 34°22' E 135°07'0 0.0
2017-Sep-16 19:54N 34°22' E 135°07'0 0.0
2017-Sep-16 17:07N 34°22' E 135°07'0 0.0
2017-Sep-16 15:31N 34°22' E 135°07'0 0.0
2017-Sep-16 15:01N 34°22' E 135°07'0 0.0
2017-Sep-16 14:55N 34°22' E 135°07'0 0.0
2017-Sep-16 14:19N 34°22' E 135°07'0 0.0
2017-Sep-16 13:43N 34°22' E 135°07'0 0.0
2017-Sep-16 05:54N 34°22' E 135°07'2 0.2
2017-Sep-15 16:54N 34°23' E 135°05'2 3.6
2017-Sep-15 16:21N 34°25' E 135°06'4 9.4
2017-Sep-15 15:58N 34°29' E 135°05'4 9.5
2017-Sep-15 15:30N 34°33' E 135°05'610.7
2017-Sep-15 14:59N 34°37' E 135°00'  
2017-Sep-09 06:49N 34°37' E 135°01'2 5.0
2017-Sep-09 06:30N 34°36' E 135°03'3 5.8
2017-Sep-09 06:00N 34°35' E 135°05'5 9.5
2017-Sep-09 05:31N 34°30' E 135°04'5 9.4
2017-Sep-09 04:56N 34°25' E 135°02'4 9.2
2017-Sep-09 04:31N 34°21' E 135°01'6 9.0
2017-Sep-09 03:47N 34°15' E 134°60'3 9.6
2017-Sep-09 03:30N 34°12' E 134°60'6 9.9
2017-Sep-09 02:53N 34°06' E 135°01'  

Dump ship's entire track history